Time;durP1;ratioP1;P1;durP2;ratioP2;P2;SDS_P1;SDS_P2;PMS_P1;PMS_P2;Temp;Humidity;BMP_temperature;BMP_pressure;BME280_temperature;BME280_humidity;BME280_pressure;Samples;Min_cycle;Max_cycle;Signal;HPM_P1;HPM_P2
2022/07/27 00:01:29;;;;;;;2.67;2.03;;;;;16.90;94236.00;;;;7389683;19;20496;-79
2022/07/27 00:03:57;;;;;;;2.58;2.10;;;;;16.80;94233.00;;;;7392467;19;20152;-77
2022/07/27 00:06:25;;;;;;;3.38;2.13;;;;;16.90;94233.00;;;;7393481;19;20140;-79
2022/07/27 00:09:00;;;;;;;5.43;2.25;;;;;16.80;94236.00;;;;7390103;19;20168;-78
2022/07/27 00:11:28;;;;;;;3.22;1.85;;;;;16.90;94238.00;;;;7390417;19;20168;-78
2022/07/27 00:13:55;;;;;;;5.55;2.05;;;;;16.90;94240.00;;;;7393245;19;20595;-79
2022/07/27 00:16:36;;;;;;;2.90;2.20;;;;;16.70;94238.00;;;;7392089;19;20579;-79
2022/07/27 00:19:10;;;;;;;4.25;1.95;;;;;16.70;94243.00;;;;7390029;19;20615;-79
2022/07/27 00:21:44;;;;;;;5.28;2.63;;;;;16.70;94247.00;;;;7391321;19;20709;-76
2022/07/27 00:24:12;;;;;;;8.07;2.33;;;;;16.70;94240.00;;;;7392341;19;20129;-78
2022/07/27 00:26:40;;;;;;;4.10;2.20;;;;;16.80;94238.00;;;;7392771;19;20141;-78
2022/07/27 00:29:15;;;;;;;3.15;2.15;;;;;17.00;94237.00;;;;7390107;19;20712;-79
2022/07/27 00:31:42;;;;;;;3.97;2.33;;;;;16.80;94243.00;;;;7391719;19;20121;-80
2022/07/27 00:34:10;;;;;;;5.18;2.17;;;;;16.80;94235.00;;;;7391381;19;20148;-79
2022/07/27 00:36:44;;;;;;;3.72;2.55;;;;;16.80;94228.00;;;;7392501;19;20181;-76
2022/07/27 00:39:14;;;;;;;3.50;2.40;;;;;16.70;94233.00;;;;7392520;19;20133;-78
2022/07/27 00:41:41;;;;;;;4.13;2.38;;;;;16.60;94233.00;;;;7389834;19;20156;-78
2022/07/27 00:44:28;;;;;;;3.72;2.35;;;;;16.40;94240.00;;;;7391595;19;20133;-77
2022/07/27 00:46:56;;;;;;;5.78;2.30;;;;;16.30;94229.00;;;;7394106;19;20587;-79
2022/07/27 00:49:30;;;;;;;3.80;2.25;;;;;16.20;94227.00;;;;7393975;19;20149;-79
2022/07/27 00:51:58;;;;;;;4.82;2.80;;;;;16.30;94221.00;;;;7398069;19;20149;-79
2022/07/27 00:54:25;;;;;;;4.30;2.42;;;;;16.00;94230.00;;;;7399746;19;20153;-77
2022/07/27 00:57:00;;;;;;;4.18;2.72;;;;;16.30;94221.00;;;;7396238;19;20159;-79
2022/07/27 00:59:28;;;;;;;5.97;2.67;;;;;16.10;94227.00;;;;7397527;19;20144;-78
2022/07/27 01:01:55;;;;;;;3.88;2.70;;;;;16.10;94226.00;;;;7397585;19;20170;-79
2022/07/27 01:04:30;;;;;;;3.58;2.53;;;;;16.10;94223.00;;;;7399140;19;20171;-78
2022/07/27 01:06:58;;;;;;;4.25;2.38;;;;;16.00;94226.00;;;;7396025;19;20163;-78
2022/07/27 01:12:20;;;;;;;4.20;2.78;;;;;15.90;94214.00;;;;7397334;19;20157;-77
2022/07/27 01:14:49;;;;;;;4.85;2.80;;;;;15.90;94214.00;;;;7395096;19;20141;-76
2022/07/27 01:17:17;;;;;;;5.07;2.45;;;;;15.80;94214.00;;;;7393724;19;20531;-78
2022/07/27 01:19:53;;;;;;;4.50;2.28;;;;;15.70;94211.00;;;;7397727;19;20146;-77
2022/07/27 01:22:20;;;;;;;8.10;2.72;;;;;15.80;94214.00;;;;7396880;19;20145;-80
2022/07/27 01:24:49;;;;;;;5.07;2.65;;;;;15.80;94212.00;;;;7398555;19;20265;-78
2022/07/27 01:27:23;;;;;;;3.13;2.72;;;;;15.70;94204.00;;;;7396254;19;20160;-78
2022/07/27 01:29:51;;;;;;;4.22;2.63;;;;;15.70;94196.00;;;;7397960;19;20136;-77
2022/07/27 01:32:19;;;;;;;4.78;2.83;;;;;15.70;94199.00;;;;7396746;19;20129;-78
2022/07/27 01:34:53;;;;;;;3.42;2.80;;;;;15.90;94201.00;;;;7398367;19;20128;-77
2022/07/27 01:37:21;;;;;;;3.85;2.92;;;;;15.70;94196.00;;;;7397353;19;20152;-78
2022/07/27 01:39:48;;;;;;;4.68;2.97;;;;;15.70;94189.00;;;;7396774;19;20659;-78
2022/07/27 01:42:22;;;;;;;3.55;3.00;;;;;15.60;94193.00;;;;7394961;19;20156;-78
2022/07/27 01:44:50;;;;;;;5.88;2.80;;;;;15.50;94186.00;;;;7399034;19;20618;-77
2022/07/27 01:47:18;;;;;;;6.13;2.90;;;;;15.40;94183.00;;;;7393080;19;20145;-78
2022/07/27 01:49:51;;;;;;;5.35;2.63;;;;;15.40;94177.00;;;;7396168;19;20147;-78
2022/07/27 01:52:19;;;;;;;3.33;2.70;;;;;15.50;94182.00;;;;7397261;19;20137;-77
2022/07/27 01:54:46;;;;;;;4.72;3.00;;;;;15.70;94177.00;;;;7397273;19;20137;-77
2022/07/27 01:57:20;;;;;;;3.97;2.80;;;;;15.60;94171.00;;;;7394769;19;20123;-78
2022/07/27 01:59:48;;;;;;;4.60;3.13;;;;;15.70;94173.00;;;;7396604;19;20229;-79
2022/07/27 02:02:15;;;;;;;3.53;2.90;;;;;15.70;94173.00;;;;7393593;19;20145;-79
2022/07/27 02:04:49;;;;;;;7.47;3.00;;;;;15.60;94170.00;;;;7393749;19;20145;-78
2022/07/27 02:07:17;;;;;;;5.70;3.40;;;;;15.80;94183.00;;;;7395468;19;20200;-78
2022/07/27 02:09:45;;;;;;;5.47;2.60;;;;;15.60;94179.00;;;;7397469;19;20153;-80
2022/07/27 02:12:34;;;;;;;5.72;3.10;;;;;15.60;94171.00;;;;7394617;19;20171;-78
2022/07/27 02:15:07;;;;;;;3.47;3.10;;;;;15.50;94165.00;;;;7393465;19;20117;-78
2022/07/27 02:17:49;;;;;;;9.48;3.58;;;;;15.50;94156.00;;;;7392103;19;20240;-77
2022/07/27 02:20:24;;;;;;;4.13;3.70;;;;;15.80;94153.00;;;;7396351;19;20745;-78
2022/07/27 02:22:58;;;;;;;4.20;3.17;;;;;15.80;94157.00;;;;7394395;19;20120;-78
2022/07/27 02:25:26;;;;;;;7.05;3.53;;;;;15.60;94162.00;;;;7395828;19;20132;-78
2022/07/27 02:27:53;;;;;;;5.90;3.60;;;;;15.60;94169.00;;;;7395695;19;20463;-78
2022/07/27 02:30:28;;;;;;;3.90;3.03;;;;;15.50;94157.00;;;;7395666;19;20459;-76
2022/07/27 02:32:55;;;;;;;5.85;3.58;;;;;15.30;94153.00;;;;7397239;19;20704;-76
2022/07/27 02:35:23;;;;;;;6.20;3.78;;;;;15.40;94155.00;;;;7395703;19;20523;-77
2022/07/27 02:37:57;;;;;;;7.63;3.70;;;;;15.40;94152.00;;;;7396492;19;20147;-77
2022/07/27 02:40:25;;;;;;;4.38;3.70;;;;;15.30;94153.00;;;;7396693;19;20136;-77
2022/07/27 02:42:53;;;;;;;5.57;3.90;;;;;15.10;94158.00;;;;7397162;19;20586;-78
2022/07/27 02:45:26;;;;;;;4.95;4.05;;;;;15.10;94167.00;;;;7393843;19;20149;-77
2022/07/27 02:47:54;;;;;;;8.55;4.05;;;;;15.10;94169.00;;;;7393436;19;20525;-77
2022/07/27 02:50:22;;;;;;;5.15;3.60;;;;;14.90;94159.00;;;;7397551;19;20521;-77
2022/07/27 02:52:55;;;;;;;4.35;3.65;;;;;14.70;94163.00;;;;7394473;19;20126;-77
2022/07/27 02:55:23;;;;;;;8.00;4.20;;;;;14.90;94165.00;;;;7393265;19;20592;-77
2022/07/27 02:57:50;;;;;;;4.95;3.72;;;;;15.00;94165.00;;;;7395110;19;20208;-77
2022/07/27 03:00:24;;;;;;;5.50;4.03;;;;;15.20;94151.00;;;;7394884;19;20761;-77
2022/07/27 03:02:52;;;;;;;6.07;3.97;;;;;15.00;94162.00;;;;7393415;19;20141;-78
2022/07/27 03:05:19;;;;;;;6.80;3.83;;;;;15.10;94161.00;;;;7393861;19;20475;-77
2022/07/27 03:07:53;;;;;;;5.63;4.22;;;;;15.20;94163.00;;;;7394367;19;20663;-78
2022/07/27 03:10:21;;;;;;;6.65;4.13;;;;;15.00;94161.00;;;;7394109;19;20623;-78
2022/07/27 03:12:48;;;;;;;4.05;3.65;;;;;14.90;94154.00;;;;7393395;19;20172;-77
2022/07/27 03:15:30;;;;;;;5.40;4.90;;;;;15.20;94155.00;;;;7392963;19;20132;-79
2022/07/27 03:18:04;;;;;;;6.32;4.30;;;;;15.20;94149.00;;;;7392079;19;20191;-77
2022/07/27 03:20:39;;;;;;;5.10;4.07;;;;;15.10;94166.00;;;;7394767;19;20162;-77
2022/07/27 03:23:06;;;;;;;5.28;4.55;;;;;15.00;94165.00;;;;7391467;19;20511;-78
2022/07/27 03:25:35;;;;;;;6.53;4.40;;;;;15.20;94164.00;;;;7392454;19;20654;-78
2022/07/27 03:28:09;;;;;;;5.38;4.30;;;;;15.10;94164.00;;;;7393452;19;20611;-76
2022/07/27 03:30:36;;;;;;;4.03;3.72;;;;;15.00;94178.00;;;;7395532;19;20140;-78
2022/07/27 03:33:04;;;;;;;4.60;4.20;;;;;14.90;94162.00;;;;7391618;19;20655;-76
2022/07/27 03:35:39;;;;;;;4.68;3.97;;;;;14.90;94169.00;;;;7392182;19;20166;-79
2022/07/27 03:38:06;;;;;;;8.02;4.40;;;;;14.90;94171.00;;;;7393899;19;20149;-79
2022/07/27 03:40:44;;;;;;;5.32;3.85;;;;;15.20;94173.00;;;;7394648;19;20506;-78
2022/07/27 03:43:19;;;;;;;5.45;3.78;;;;;15.10;94164.00;;;;7391150;19;20227;-77
2022/07/27 03:45:46;;;;;;;5.03;4.07;;;;;14.90;94160.00;;;;7392442;19;20129;-76
2022/07/27 03:48:14;;;;;;;7.70;4.43;;;;;15.00;94162.00;;;;7392440;19;20148;-76
2022/07/27 03:50:48;;;;;;;5.93;4.53;;;;;15.20;94164.00;;;;7393537;19;20149;-78
2022/07/27 03:53:16;;;;;;;5.18;4.30;;;;;15.00;94165.00;;;;7391364;19;20137;-80
2022/07/27 03:55:44;;;;;;;7.70;4.25;;;;;15.10;94171.00;;;;7392444;19;20148;-80
2022/07/27 03:58:18;;;;;;;5.15;4.68;;;;;15.30;94163.00;;;;7392551;19;20133;-81
2022/07/27 04:00:45;;;;;;;5.20;4.30;;;;;15.20;94153.00;;;;7393468;19;20161;-79
2022/07/27 04:03:13;;;;;;;5.43;4.57;;;;;15.10;94165.00;;;;7389752;19;20125;-80
2022/07/27 04:05:46;;;;;;;7.18;4.40;;;;;15.00;94168.00;;;;7391432;19;20158;-80
2022/07/27 04:08:16;;;;;;;8.20;4.80;;;;;15.00;94166.00;;;;7393895;19;20492;-78
2022/07/27 04:10:44;;;;;;;6.00;4.50;;;;;15.10;94168.00;;;;7394783;19;20460;-80
2022/07/27 04:13:20;;;;;;;6.05;4.40;;;;;15.00;94169.00;;;;7386928;19;20136;-81
2022/07/27 04:15:56;;;;;;;5.93;4.60;;;;;14.90;94171.00;;;;7391283;19;20137;-77
2022/07/27 04:18:41;;;;;;;6.18;4.30;;;;;15.00;94168.00;;;;7398902;19;20132;-78
2022/07/27 04:21:09;;;;;;;6.47;4.53;;;;;15.10;94164.00;;;;7398073;19;20196;-76
2022/07/27 04:23:44;;;;;;;7.00;4.38;;;;;15.30;94151.00;;;;7395829;19;20167;-80
2022/07/27 04:26:12;;;;;;;9.55;4.65;;;;;15.20;94153.00;;;;7398014;19;20612;-79
2022/07/27 04:28:41;;;;;;;6.90;4.90;;;;;15.00;94156.00;;;;7400538;19;20216;-78
2022/07/27 04:31:15;;;;;;;5.22;4.03;;;;;15.10;94157.00;;;;7398260;19;20610;-78
2022/07/27 04:33:43;;;;;;;5.93;4.65;;;;;15.00;94154.00;;;;7399422;19;20141;-79
2022/07/27 04:36:12;;;;;;;9.35;4.25;;;;;15.10;94148.00;;;;7398223;19;20854;-79
2022/07/27 04:38:47;;;;;;;6.63;4.40;;;;;15.00;94156.00;;;;7401169;19;20634;-79
2022/07/27 04:41:14;;;;;;;5.15;4.65;;;;;15.10;94148.00;;;;7397167;19;20163;-80
2022/07/27 04:43:42;;;;;;;6.43;4.80;;;;;15.00;94156.00;;;;7397207;19;20148;-79
2022/07/27 04:46:16;;;;;;;10.27;4.32;;;;;15.00;94158.00;;;;7398174;19;20137;-78
2022/07/27 04:48:43;;;;;;;5.20;4.70;;;;;15.00;94159.00;;;;7399826;19;20145;-79
2022/07/27 04:51:16;;;;;;;9.38;5.10;;;;;14.90;94165.00;;;;7396461;19;20144;-78
2022/07/27 04:53:51;;;;;;;5.10;4.35;;;;;14.90;94164.00;;;;7397520;19;20502;-81
2022/07/27 04:56:26;;;;;;;5.85;4.55;;;;;15.00;94167.00;;;;7399107;19;20594;-79
2022/07/27 04:59:00;;;;;;;4.72;3.65;;;;;14.90;94183.00;;;;7398080;19;20128;-80
2022/07/27 05:01:27;;;;;;;4.90;4.40;;;;;14.90;94179.00;;;;7397717;19;20137;-81
2022/07/27 05:04:02;;;;;;;4.95;4.45;;;;;14.80;94187.00;;;;7397309;19;20259;-79
2022/07/27 05:06:37;;;;;;;9.52;4.70;;;;;14.90;94188.00;;;;7398365;19;20124;-79
2022/07/27 05:09:04;;;;;;;5.63;4.85;;;;;15.00;94192.00;;;;7396569;19;20145;-80
2022/07/27 05:11:32;;;;;;;4.68;4.10;;;;;14.90;94191.00;;;;7394037;19;20614;-79
2022/07/27 05:14:10;;;;;;;5.15;4.60;;;;;15.00;94192.00;;;;7397529;19;20178;-78
2022/07/27 05:16:45;;;;;;;6.28;4.40;;;;;15.00;94194.00;;;;7397196;19;20171;-80
2022/07/27 05:19:26;;;;;;;5.75;4.10;;;;;15.20;94197.00;;;;7394415;19;20543;-78
2022/07/27 05:22:08;;;;;;;5.10;4.47;;;;;15.20;94207.00;;;;7398621;19;20117;-79
2022/07/27 05:24:42;;;;;;;5.35;4.43;;;;;15.30;94216.00;;;;7397503;19;20128;-78
2022/07/27 05:27:10;;;;;;;4.93;4.43;;;;;15.50;94205.00;;;;7396485;19;20133;-76
2022/07/27 05:29:38;;;;;;;6.40;4.63;;;;;15.50;94205.00;;;;7395625;19;20155;-79
2022/07/27 05:32:13;;;;;;;4.85;3.90;;;;;15.50;94204.00;;;;7398397;19;20132;-79
2022/07/27 05:34:41;;;;;;;4.30;3.75;;;;;15.40;94201.00;;;;7396014;19;20624;-78
2022/07/27 05:37:09;;;;;;;7.32;4.88;;;;;15.40;94210.00;;;;7395124;19;20136;-78
2022/07/27 05:39:43;;;;;;;6.15;4.20;;;;;15.40;94212.00;;;;7395903;19;20136;-78
2022/07/27 05:42:10;;;;;;;3.88;3.45;;;;;15.40;94206.00;;;;7395738;19;20148;-78
2022/07/27 05:44:38;;;;;;;7.20;4.50;;;;;15.50;94202.00;;;;7397156;19;20599;-77
2022/07/27 05:47:12;;;;;;;5.63;4.10;;;;;15.50;94203.00;;;;7395446;19;20615;-78
2022/07/27 05:49:39;;;;;;;4.30;3.90;;;;;15.50;94211.00;;;;7395551;19;20127;-77
2022/07/27 05:52:07;;;;;;;6.10;3.90;;;;;15.40;94222.00;;;;7395651;19;20144;-79
2022/07/27 05:54:41;;;;;;;6.30;4.03;;;;;15.50;94212.00;;;;7399012;19;20200;-78
2022/07/27 05:57:08;;;;;;;4.82;4.43;;;;;15.90;94222.00;;;;7394658;19;20153;-80
2022/07/27 05:59:37;;;;;;;9.43;4.53;;;;;16.00;94221.00;;;;7396575;19;20133;-79
2022/07/27 06:02:11;;;;;;;7.32;4.50;;;;;16.00;94229.00;;;;7394979;19;20575;-74
2022/07/27 06:04:38;;;;;;;6.93;4.22;;;;;16.10;94226.00;;;;7398787;19;20125;-79
2022/07/27 06:09:59;;;;;;;5.13;4.00;;;;;16.20;94218.00;;;;7394445;19;20662;-77
2022/07/27 06:12:27;;;;;;;4.80;4.40;;;;;16.20;94229.00;;;;7394655;19;20148;-78
2022/07/27 06:14:56;;;;;;;9.98;4.20;;;;;16.10;94229.00;;;;7396903;19;20664;-78
2022/07/27 06:17:38;;;;;;;4.20;3.80;;;;;16.30;94222.00;;;;7392797;19;20159;-79
2022/07/27 06:20:07;;;;;;;6.50;4.03;;;;;16.50;94226.00;;;;7393695;19;20128;-77
2022/07/27 06:22:53;;;;;;;4.38;3.85;;;;;16.80;94226.00;;;;7393025;19;20152;-78
2022/07/27 06:25:23;;;;;;;5.30;4.30;;;;;17.10;94220.00;;;;7394096;19;20579;-76
2022/07/27 06:28:03;;;;;;;6.95;3.92;;;;;17.20;94228.00;;;;7394111;19;20642;-77
2022/07/27 06:30:31;;;;;;;4.43;3.85;;;;;17.40;94226.00;;;;7394758;19;20168;-79
2022/07/27 06:33:06;;;;;;;7.30;4.10;;;;;17.40;94220.00;;;;7393229;19;20147;-78
2022/07/27 06:35:34;;;;;;;6.00;4.03;;;;;17.30;94219.00;;;;7395216;19;20646;-78
2022/07/27 06:38:06;;;;;;;5.85;3.70;;;;;17.50;94222.00;;;;7394612;19;20666;-78
2022/07/27 06:40:40;;;;;;;4.55;4.00;;;;;17.60;94218.00;;;;7395509;19;20625;-79
2022/07/27 06:43:07;;;;;;;7.70;4.07;;;;;17.70;94207.00;;;;7391707;19;20133;-79
2022/07/27 06:45:35;;;;;;;5.10;3.58;;;;;17.90;94214.00;;;;7393407;19;20224;-78
2022/07/27 06:48:09;;;;;;;6.70;3.75;;;;;18.00;94223.00;;;;7391896;19;20132;-77
2022/07/27 06:50:36;;;;;;;4.03;3.63;;;;;18.10;94222.00;;;;7394035;19;20166;-79
2022/07/27 06:53:04;;;;;;;4.65;3.80;;;;;18.20;94215.00;;;;7392348;19;20121;-77
2022/07/27 06:55:38;;;;;;;4.07;3.67;;;;;18.30;94219.00;;;;7395283;19;20629;-77
2022/07/27 06:58:06;;;;;;;6.35;4.00;;;;;18.20;94231.00;;;;7392646;19;20136;-79
2022/07/27 07:00:35;;;;;;;5.70;3.80;;;;;18.40;94223.00;;;;7391438;19;20623;-78
2022/07/27 07:03:10;;;;;;;4.60;3.60;;;;;18.40;94223.00;;;;7388340;19;20148;-77
2022/07/27 07:05:45;;;;;;;5.40;3.60;;;;;18.40;94226.00;;;;7391042;19;20158;-78
2022/07/27 07:08:21;;;;;;;5.63;3.10;;;;;18.40;94226.00;;;;7392827;19;20538;-76
2022/07/27 07:10:49;;;;;;;5.32;3.67;;;;;18.60;94230.00;;;;7393353;19;20635;-79
2022/07/27 07:13:17;;;;;;;4.22;3.83;;;;;18.60;94227.00;;;;7391715;19;20137;-76
2022/07/27 07:16:04;;;;;;;4.13;3.72;;;;;18.60;94224.00;;;;7392958;19;20137;-78
2022/07/27 07:18:39;;;;;;;5.78;3.95;;;;;18.60;94228.00;;;;7393742;19;20148;-78
2022/07/27 07:21:18;;;;;;;4.90;3.40;;;;;18.60;94233.00;;;;7391901;19;20141;-78
2022/07/27 07:23:46;;;;;;;5.85;3.70;;;;;18.60;94225.00;;;;7389365;19;20237;-80
2022/07/27 07:26:20;;;;;;;7.03;3.97;;;;;18.80;94230.00;;;;7394888;19;20132;-77
2022/07/27 07:28:51;;;;;;;5.78;3.90;;;;;18.80;94231.00;;;;7394140;19;20657;-78
2022/07/27 07:31:19;;;;;;;4.10;3.55;;;;;18.70;94229.00;;;;7391941;19;20142;-79
2022/07/27 07:33:53;;;;;;;6.90;3.70;;;;;18.70;94228.00;;;;7392169;19;20142;-79
2022/07/27 07:36:21;;;;;;;5.18;3.40;;;;;18.80;94232.00;;;;7392959;19;20679;-79
2022/07/27 07:38:48;;;;;;;5.25;3.33;;;;;18.90;94229.00;;;;7394869;19;20121;-77
2022/07/27 07:41:23;;;;;;;4.35;3.63;;;;;18.90;94225.00;;;;7390644;19;20163;-79
2022/07/27 07:43:50;;;;;;;4.07;3.65;;;;;18.90;94219.00;;;;7390027;19;20149;-79
2022/07/27 07:46:24;;;;;;;4.75;3.35;;;;;19.10;94211.00;;;;7392125;19;20121;-77
2022/07/27 07:48:59;;;;;;;4.32;3.85;;;;;19.30;94211.00;;;;7391259;19;20554;-77
2022/07/27 07:51:26;;;;;;;7.03;3.40;;;;;19.50;94205.00;;;;7391848;19;20493;-76
2022/07/27 07:53:54;;;;;;;5.55;3.30;;;;;19.90;94204.00;;;;7392556;19;20649;-78
2022/07/27 07:56:29;;;;;;;6.57;3.47;;;;;20.30;94217.00;;;;7392588;19;20148;-78
2022/07/27 07:58:58;;;;;;;4.30;3.30;;;;;20.40;94218.00;;;;7392291;19;20155;-78
2022/07/27 08:01:25;;;;;;;4.80;3.40;;;;;20.60;94214.00;;;;7389877;19;20647;-77
2022/07/27 08:04:00;;;;;;;3.78;3.13;;;;;20.70;94218.00;;;;7390546;19;20151;-78
2022/07/27 08:06:28;;;;;;;4.15;3.72;;;;;20.40;94212.00;;;;7391891;19;20144;-79
2022/07/27 08:08:56;;;;;;;4.30;2.83;;;;;20.70;94216.00;;;;7392639;19;20132;-79
2022/07/27 08:11:30;;;;;;;3.85;3.17;;;;;21.30;94214.00;;;;7391070;19;20219;-77
2022/07/27 08:13:58;;;;;;;5.20;3.35;;;;;21.60;94214.00;;;;7390537;19;20128;-78
2022/07/27 08:16:26;;;;;;;3.47;3.10;;;;;21.70;94213.00;;;;7391471;19;20210;-77
2022/07/27 08:19:08;;;;;;;5.38;3.20;;;;;21.90;94220.00;;;;7388682;19;20491;-78
2022/07/27 08:21:36;;;;;;;6.47;3.33;;;;;21.80;94217.00;;;;7391928;19;20128;-77
2022/07/27 08:24:10;;;;;;;4.32;3.20;;;;;21.90;94217.00;;;;7389855;19;20152;-77
2022/07/27 08:26:38;;;;;;;3.78;2.95;;;;;21.50;94237.00;;;;7392085;19;20477;-79
2022/07/27 08:29:05;;;;;;;3.85;3.45;;;;;21.10;94227.00;;;;7390685;19;20156;-79
2022/07/27 08:31:41;;;;;;;5.07;3.20;;;;;20.80;94234.00;;;;7389410;19;20148;-77
2022/07/27 08:34:18;;;;;;;4.45;3.33;;;;;20.30;94245.00;;;;7392515;19;20200;-79
2022/07/27 08:36:53;;;;;;;5.18;3.55;;;;;19.90;94245.00;;;;7391692;19;20729;-79
2022/07/27 08:39:21;;;;;;;5.45;3.15;;;;;19.70;94251.00;;;;7390938;19;20129;-77
2022/07/27 08:42:09;;;;;;;4.05;3.28;;;;;19.50;94247.00;;;;7390626;19;20129;-78
2022/07/27 08:44:45;;;;;;;3.88;3.55;;;;;19.30;94248.00;;;;7393458;19;20132;-80
2022/07/27 08:47:15;;;;;;;6.43;3.90;;;;;20.20;94251.00;;;;7389041;19;20145;-77
2022/07/27 08:49:43;;;;;;;3.97;3.58;;;;;20.10;94254.00;;;;7389372;19;20156;-77
2022/07/27 08:52:18;;;;;;;6.47;3.63;;;;;20.30;94257.00;;;;7391920;19;20140;-79
2022/07/27 08:54:49;;;;;;;5.28;4.00;;;;;20.40;94256.00;;;;7392448;19;20495;-78
2022/07/27 08:57:17;;;;;;;3.90;3.50;;;;;20.40;94244.00;;;;7388927;19;20639;-78
2022/07/27 08:59:55;;;;;;;6.10;3.92;;;;;21.30;94241.00;;;;7390016;19;20149;-79
2022/07/27 09:02:23;;;;;;;3.45;3.15;;;;;22.00;94235.00;;;;7390860;19;20133;-78
2022/07/27 09:04:50;;;;;;;7.45;3.20;;;;;22.60;94229.00;;;;7391502;19;20141;-79
2022/07/27 09:07:30;;;;;;;4.20;3.13;;;;;22.80;94241.00;;;;7389748;19;20154;-78
2022/07/27 09:09:58;;;;;;;4.68;3.33;;;;;22.50;94237.00;;;;7393910;19;20144;-78
2022/07/27 09:12:35;;;;;;;3.92;3.15;;;;;23.30;94220.00;;;;7392814;19;20500;-79
2022/07/27 09:15:13;;;;;;;3.28;2.97;;;;;24.10;94236.00;;;;7394793;19;20140;-78
2022/07/27 09:17:54;;;;;;;6.80;3.20;;;;;24.00;94224.00;;;;7396261;19;20165;-77
2022/07/27 09:20:28;;;;;;;5.55;3.20;;;;;24.40;94223.00;;;;7398433;19;20181;-78
2022/07/27 09:23:03;;;;;;;5.80;3.53;;;;;23.80;94250.00;;;;7393715;19;20155;-78
2022/07/27 09:25:32;;;;;;;5.25;4.13;;;;;23.70;94240.00;;;;7396517;19;20136;-78
2022/07/27 09:28:29;;;;;;;4.57;2.97;;;;;23.50;94246.00;;;;7396431;19;20623;-79
2022/07/27 09:31:13;;;;;;;4.45;3.10;;;;;23.20;94246.00;;;;7393709;19;20555;-78
2022/07/27 09:33:47;;;;;;;4.32;3.10;;;;;22.60;94244.00;;;;7394990;19;20557;-79
2022/07/27 09:36:23;;;;;;;4.78;3.17;;;;;22.20;94251.00;;;;7397330;19;20156;-76
2022/07/27 09:38:58;;;;;;;7.07;3.30;;;;;22.00;94251.00;;;;7399494;19;20237;-79
2022/07/27 09:41:40;;;;;;;6.28;3.05;;;;;21.70;94254.00;;;;7393615;19;20196;-78
2022/07/27 09:44:08;;;;;;;5.60;3.30;;;;;21.50;94256.00;;;;7393784;19;20160;-79
2022/07/27 09:47:27;;;;;;;3.72;3.35;;;;;22.30;94239.00;;;;7393660;19;20602;-80
2022/07/27 09:49:57;;;;;;;3.42;3.22;;;;;22.80;94235.00;;;;7395421;19;20702;-80
2022/07/27 09:52:33;;;;;;;4.53;3.10;;;;;23.40;94235.00;;;;7395743;19;20156;-79
2022/07/27 09:55:06;;;;;;;3.50;2.80;;;;;23.50;94257.00;;;;7393144;19;20516;-78
2022/07/27 09:57:54;;;;;;;6.80;3.35;;;;;22.30;94259.00;;;;7395991;19;20133;-79
2022/07/27 10:00:24;;;;;;;4.90;3.00;;;;;22.40;94231.00;;;;7395161;19;21078;-81
2022/07/27 10:02:59;;;;;;;3.15;2.80;;;;;23.70;94246.00;;;;7392741;19;20124;-77
2022/07/27 10:05:27;;;;;;;5.07;2.55;;;;;23.80;94222.00;;;;7395172;19;20149;-78
2022/07/27 10:07:55;;;;;;;3.53;2.63;;;;;24.40;94216.00;;;;7394421;19;20625;-79
2022/07/27 10:10:29;;;;;;;3.70;2.70;;;;;25.30;94232.00;;;;7395740;19;20170;-78
2022/07/27 10:12:56;;;;;;;4.18;2.50;;;;;25.00;94237.00;;;;7395938;19;20651;-77
2022/07/27 10:15:24;;;;;;;3.80;2.58;;;;;24.90;94228.00;;;;7393655;19;20129;-78
2022/07/27 10:18:17;;;;;;;2.70;2.25;;;;;24.70;94241.00;;;;7391862;19;21177;-78
2022/07/27 10:20:45;;;;;;;3.50;2.80;;;;;23.50;94229.00;;;;7396953;19;20140;-78
2022/07/27 10:23:28;;;;;;;6.35;3.17;;;;;23.20;94250.00;;;;7391339;19;20148;-77
2022/07/27 10:26:14;;;;;;;4.30;2.67;;;;;22.50;94241.00;;;;7393692;19;20136;-80
2022/07/27 10:29:00;;;;;;;3.35;2.53;;;;;22.70;94252.00;;;;7395854;19;20611;-78
2022/07/27 10:31:33;;;;;;;8.80;3.30;;;;;23.70;94237.00;;;;7392426;19;20760;-78
2022/07/27 10:34:11;;;;;;;4.07;2.78;;;;;25.00;94245.00;;;;7393634;19;20503;-78
2022/07/27 10:36:47;;;;;;;4.07;3.08;;;;;25.30;94222.00;;;;7396733;19;20149;-78
2022/07/27 10:39:34;;;;;;;3.45;2.80;;;;;25.70;94238.00;;;;7393437;19;20141;-78
2022/07/27 10:42:23;;;;;;;4.32;2.22;;;;;25.10;94242.00;;;;7392957;19;20149;-78
2022/07/27 10:45:10;;;;;;;3.22;2.50;;;;;24.40;94242.00;;;;7391111;19;20621;-79
2022/07/27 10:47:44;;;;;;;4.85;2.70;;;;;24.20;94244.00;;;;7392949;19;20129;-78
2022/07/27 10:50:25;;;;;;;3.65;2.50;;;;;23.50;94253.00;;;;7395871;19;20132;-80
2022/07/27 10:52:59;;;;;;;6.22;2.42;;;;;23.10;94253.00;;;;7394674;19;20730;-79
2022/07/27 10:55:35;;;;;;;5.07;2.58;;;;;22.90;94252.00;;;;7391727;19;20182;-77
2022/07/27 10:58:08;;;;;;;7.68;2.80;;;;;22.60;94249.00;;;;7396518;19;20139;-78
2022/07/27 11:00:48;;;;;;;4.13;2.63;;;;;22.80;94241.00;;;;7396162;19;20204;-77
2022/07/27 11:03:27;;;;;;;3.67;2.60;;;;;23.30;94241.00;;;;7390141;19;20167;-77
2022/07/27 11:06:17;;;;;;;3.85;2.10;;;;;24.30;94220.00;;;;7393358;19;20148;-76
2022/07/27 11:09:01;;;;;;;5.20;2.10;;;;;25.30;94219.00;;;;7392666;19;20133;-77
2022/07/27 11:11:56;;;;;;;4.57;2.50;;;;;25.10;94240.00;;;;7391697;19;20649;-78
2022/07/27 11:14:29;;;;;;;3.80;2.60;;;;;24.80;94238.00;;;;7394769;19;20944;-76
2022/07/27 11:17:16;;;;;;;3.78;2.65;;;;;23.50;94252.00;;;;7391184;19;20251;-78
2022/07/27 11:20:11;;;;;;;4.18;2.72;;;;;23.10;94250.00;;;;7393541;19;20599;-75
2022/07/27 11:22:45;;;;;;;2.55;2.35;;;;;22.60;94258.00;;;;7394188;19;20200;-78
2022/07/27 11:25:32;;;;;;;5.22;2.45;;;;;22.40;94251.00;;;;7390027;19;20121;-77
2022/07/27 11:28:07;;;;;;;3.33;2.63;;;;;22.50;94259.00;;;;7394138;19;20605;-77
2022/07/27 11:30:34;;;;;;;4.05;2.60;;;;;22.40;94256.00;;;;7392653;19;20164;-75
2022/07/27 11:33:06;;;;;;;2.97;2.28;;;;;22.40;94253.00;;;;7389040;19;20148;-78
2022/07/27 11:35:53;;;;;;;2.95;2.30;;;;;22.20;94255.00;;;;7392631;19;20602;-76
2022/07/27 11:38:21;;;;;;;2.45;2.22;;;;;22.10;94254.00;;;;7393310;19;20129;-76
2022/07/27 11:40:56;;;;;;;4.82;2.30;;;;;22.30;94247.00;;;;7392677;19;20161;-75
2022/07/27 11:43:44;;;;;;;3.67;2.50;;;;;22.90;94234.00;;;;7388703;19;20141;-75
2022/07/27 11:46:26;;;;;;;3.88;2.80;;;;;23.30;94238.00;;;;7394693;19;20599;-75
2022/07/27 11:49:05;;;;;;;2.90;2.33;;;;;23.10;94242.00;;;;7393280;19;20143;-75
2022/07/27 11:51:48;;;;;;;2.72;2.30;;;;;23.10;94238.00;;;;7390062;19;20152;-75
2022/07/27 11:54:20;;;;;;;2.75;2.20;;;;;23.20;94230.00;;;;7390369;19;20647;-75
2022/07/27 11:57:00;;;;;;;2.70;2.17;;;;;24.00;94219.00;;;;7391984;19;20128;-75
2022/07/27 11:59:29;;;;;;;2.92;2.25;;;;;25.30;94209.00;;;;7393717;19;20155;-74
2022/07/27 12:02:09;;;;;;;3.17;2.33;;;;;26.40;94203.00;;;;7392487;19;21043;-76
2022/07/27 12:04:41;;;;;;;6.03;2.10;;;;;26.80;94207.00;;;;7392197;19;20141;-77
2022/07/27 12:07:32;;;;;;;5.53;1.88;;;;;26.90;94232.00;;;;7390189;19;20156;-77
2022/07/27 12:10:05;;;;;;;1.90;1.80;;;;;26.00;94224.00;;;;7391693;19;20141;-76
2022/07/27 12:12:47;;;;;;;4.13;1.98;;;;;25.10;94222.00;;;;7391119;19;20618;-77
2022/07/27 12:15:17;;;;;;;4.38;1.98;;;;;24.40;94227.00;;;;7391454;19;20132;-77
2022/07/27 12:18:24;;;;;;;3.10;1.90;;;;;23.80;94229.00;;;;7390599;19;20665;-76
2022/07/27 12:20:59;;;;;;;4.43;2.05;;;;;23.30;94236.00;;;;7389099;19;20149;-78
2022/07/27 12:23:33;;;;;;;2.95;1.92;;;;;22.60;94237.00;;;;7388476;19;20148;-78
2022/07/27 12:26:20;;;;;;;2.28;1.75;;;;;22.40;94244.00;;;;7389827;19;20144;-79
2022/07/27 12:29:11;;;;;;;3.78;1.73;;;;;22.00;94252.00;;;;7394045;19;20600;-79
2022/07/27 12:31:47;;;;;;;7.32;2.08;;;;;22.20;94250.00;;;;7389991;19;20221;-77
2022/07/27 12:34:22;;;;;;;4.60;1.95;;;;;22.30;94250.00;;;;7391850;19;20149;-77
2022/07/27 12:36:49;;;;;;;1.92;1.70;;;;;22.20;94252.00;;;;7392143;19;20149;-77
2022/07/27 12:39:27;;;;;;;3.80;1.83;;;;;22.10;94245.00;;;;7389765;19;20141;-78
2022/07/27 12:42:06;;;;;;;2.15;1.70;;;;;22.20;94238.00;;;;7391204;19;20133;-77
2022/07/27 12:44:36;;;;;;;5.93;1.90;;;;;22.40;94234.00;;;;7391064;19;20623;-77
2022/07/27 12:50:17;;;;;;;2.60;1.75;;;;;22.30;94240.00;;;;7399219;19;20256;-77
2022/07/27 12:52:52;;;;;;;3.22;2.30;;;;;22.50;94243.00;;;;7397734;19;20156;-77
2022/07/27 12:55:21;;;;;;;2.22;1.77;;;;;22.20;94247.00;;;;7395873;19;20117;-77
2022/07/27 12:57:50;;;;;;;4.55;2.00;;;;;23.30;94228.00;;;;7398505;19;20133;-78